Time;durP1;ratioP1;P1;durP2;ratioP2;P2;SDS_P1;SDS_P2;PMS_P1;PMS_P2;Temp;Humidity;BMP_temperature;BMP_pressure;BME280_temperature;BME280_humidity;BME280_pressure;Samples;Min_cycle;Max_cycle;Signal;HPM_P1;HPM_P2
2024/01/15 00:02:21;;;;;;;6.45;5.05;;;;;;;;;;5057583;28;20021;-66
2024/01/15 00:04:47;;;;;;;7.28;5.20;;;;;;;;;;5057767;28;20033;-60
2024/01/15 00:07:12;;;;;;;9.02;4.97;;;;;;;;;;5057565;28;20029;-60
2024/01/15 00:09:37;;;;;;;6.35;4.70;;;;;;;;;;5056700;28;20057;-61
2024/01/15 00:12:03;;;;;;;5.90;4.85;;;;;;;;;;5055855;28;20061;-60
2024/01/15 00:14:28;;;;;;;6.18;4.68;;;;;;;;;;5056551;28;20107;-61
2024/01/15 00:16:55;;;;;;;8.02;5.22;;;;;;;;;;5056401;28;20025;-66
2024/01/15 00:19:21;;;;;;;6.70;5.15;;;;;;;;;;5056367;28;20041;-65
2024/01/15 00:21:46;;;;;;;8.48;5.80;;;;;;;;;;5022127;28;20025;-60
2024/01/15 00:24:13;;;;;;;9.82;5.57;;;;;;;;;;5056451;28;20691;-65
2024/01/15 00:26:38;;;;;;;6.07;4.78;;;;;;;;;;5056188;28;20039;-61
2024/01/15 00:29:04;;;;;;;7.60;5.43;;;;;;;;;;5037973;28;20028;-61
2024/01/15 00:31:32;;;;;;;5.88;4.40;;;;;;;;;;5037990;28;20040;-61
2024/01/15 00:33:57;;;;;;;6.85;4.22;;;;;;;;;;5056282;28;20025;-65
2024/01/15 00:36:23;;;;;;;6.00;4.40;;;;;;;;;;5056587;28;20457;-65
2024/01/15 00:38:49;;;;;;;6.47;4.97;;;;;;;;;;5056373;28;20032;-65
2024/01/15 00:41:15;;;;;;;6.60;4.70;;;;;;;;;;5039640;28;20131;-61
2024/01/15 00:43:40;;;;;;;6.57;4.35;;;;;;;;;;5056343;28;20025;-60
2024/01/15 00:46:06;;;;;;;5.32;3.75;;;;;;;;;;5056755;28;20116;-60
2024/01/15 00:48:32;;;;;;;6.82;4.55;;;;;;;;;;5057140;28;20108;-61
2024/01/15 00:50:57;;;;;;;4.72;3.50;;;;;;;;;;5038786;28;20443;-61
2024/01/15 00:53:22;;;;;;;5.85;4.20;;;;;;;;;;5056869;28;20486;-61
2024/01/15 00:55:48;;;;;;;6.85;4.25;;;;;;;;;;5056735;28;20021;-60
2024/01/15 00:58:14;;;;;;;3.05;2.42;;;;;;;;;;5056193;28;20538;-61
2024/01/15 01:00:39;;;;;;;5.85;4.32;;;;;;;;;;5056247;28;20029;-60
2024/01/15 01:03:04;;;;;;;3.10;2.85;;;;;;;;;;5056935;28;20108;-60
2024/01/15 01:05:30;;;;;;;4.80;3.78;;;;;;;;;;5056080;28;20025;-64
2024/01/15 01:07:55;;;;;;;2.25;1.55;;;;;;;;;;5059850;23;22702;-61
2024/01/15 01:10:20;;;;;;;5.05;3.70;;;;;;;;;;5040168;23;20057;-90
2024/01/15 01:12:46;;;;;;;4.93;3.90;;;;;;;;;;4983244;28;20038;-90
2024/01/15 01:15:11;;;;;;;5.82;4.60;;;;;;;;;;4985621;28;20116;-91
2024/01/15 01:17:37;;;;;;;5.22;4.00;;;;;;;;;;4983427;28;20037;-92
2024/01/15 01:20:04;;;;;;;5.47;4.18;;;;;;;;;;4983450;28;20018;-90
2024/01/15 01:22:30;;;;;;;5.30;4.40;;;;;;;;;;4983309;28;20033;-90
2024/01/15 01:24:57;;;;;;;3.67;3.28;;;;;;;;;;4983117;28;20384;-91
2024/01/15 01:27:23;;;;;;;3.70;3.25;;;;;;;;;;4983308;28;20030;-91
2024/01/15 01:29:51;;;;;;;5.18;3.92;;;;;;;;;;4983044;28;20037;-91
2024/01/15 01:32:19;;;;;;;4.40;3.75;;;;;;;;;;4983311;28;20116;-92
2024/01/15 01:34:45;;;;;;;3.90;3.10;;;;;;;;;;4999144;28;20037;-91
2024/01/15 01:37:13;;;;;;;4.45;3.65;;;;;;;;;;4983014;28;20022;-89
2024/01/15 01:39:38;;;;;;;5.15;3.75;;;;;;;;;;4999091;28;20026;-91
2024/01/15 01:42:04;;;;;;;6.70;3.92;;;;;;;;;;4982766;28;20358;-90
2024/01/15 01:44:30;;;;;;;5.30;4.28;;;;;;;;;;4999100;28;20499;-90
2024/01/15 01:46:59;;;;;;;5.13;3.70;;;;;;;;;;4981781;28;20061;-91
2024/01/15 01:49:28;;;;;;;4.18;3.67;;;;;;;;;;4982545;28;20026;-92
2024/01/15 01:51:56;;;;;;;4.03;3.65;;;;;;;;;;4982840;28;20053;-89
2024/01/15 01:54:22;;;;;;;4.75;4.10;;;;;;;;;;4982683;28;20025;-90
2024/01/15 01:56:48;;;;;;;4.15;3.72;;;;;;;;;;4982814;28;20025;-91
2024/01/15 01:59:14;;;;;;;3.83;3.50;;;;;;;;;;4982446;28;20113;-91
2024/01/15 02:01:40;;;;;;;4.32;3.40;;;;;;;;;;4982377;28;20112;-91
2024/01/15 02:04:06;;;;;;;4.00;3.60;;;;;;;;;;4982257;28;20025;-90
2024/01/15 02:06:31;;;;;;;4.70;3.80;;;;;;;;;;4981959;28;20048;-91
2024/01/15 02:08:57;;;;;;;3.25;2.70;;;;;;;;;;4982032;28;20479;-92
2024/01/15 02:11:22;;;;;;;4.25;3.47;;;;;;;;;;4982095;28;20133;-91
2024/01/15 02:13:48;;;;;;;4.68;3.97;;;;;;;;;;4981657;28;20030;-90
2024/01/15 02:16:13;;;;;;;3.30;3.00;;;;;;;;;;4981344;28;20030;-90
2024/01/15 02:18:39;;;;;;;4.05;2.88;;;;;;;;;;4981435;28;20028;-90
2024/01/15 02:21:05;;;;;;;4.95;2.95;;;;;;;;;;4981099;28;20029;-90
2024/01/15 02:23:30;;;;;;;4.13;3.15;;;;;;;;;;4981382;28;20511;-90
2024/01/15 02:25:56;;;;;;;3.65;3.35;;;;;;;;;;4980818;28;20038;-90
2024/01/15 02:28:21;;;;;;;4.82;3.22;;;;;;;;;;4981172;28;20452;-90
2024/01/15 02:30:47;;;;;;;2.67;2.40;;;;;;;;;;4982009;28;20044;-90
2024/01/15 02:33:15;;;;;;;4.18;3.10;;;;;;;;;;4981957;28;20041;-91
2024/01/15 02:35:40;;;;;;;4.10;3.10;;;;;;;;;;4981762;28;20022;-91
2024/01/15 02:38:09;;;;;;;2.33;2.13;;;;;;;;;;4981717;28;20042;-91
2024/01/15 02:40:34;;;;;;;3.67;2.80;;;;;;;;;;4981687;28;20022;-91
2024/01/15 02:43:00;;;;;;;2.70;2.50;;;;;;;;;;4981806;28;20036;-91
2024/01/15 02:45:25;;;;;;;3.50;3.17;;;;;;;;;;4981222;28;20507;-91
2024/01/15 02:47:51;;;;;;;3.28;2.92;;;;;;;;;;4981565;28;20096;-91
2024/01/15 02:50:16;;;;;;;3.05;2.83;;;;;;;;;;4981209;28;20088;-91
2024/01/15 02:52:42;;;;;;;3.03;2.67;;;;;;;;;;4981659;28;20032;-91
2024/01/15 02:55:08;;;;;;;2.80;2.60;;;;;;;;;;4981319;28;20036;-91
2024/01/15 02:57:33;;;;;;;4.00;3.10;;;;;;;;;;4980969;28;20404;-92
2024/01/15 02:59:59;;;;;;;4.28;3.00;;;;;;;;;;4981260;28;20543;-91
2024/01/15 03:02:24;;;;;;;2.88;2.28;;;;;;;;;;4981229;28;20036;-90
2024/01/15 03:04:50;;;;;;;2.97;2.67;;;;;;;;;;4981543;28;20057;-90
2024/01/15 03:07:15;;;;;;;2.50;2.30;;;;;;;;;;4981507;28;20018;-91
2024/01/15 03:09:43;;;;;;;2.22;2.03;;;;;;;;;;4981779;28;20022;-91
2024/01/15 03:12:08;;;;;;;4.53;2.53;;;;;;;;;;4981324;28;20034;-91
2024/01/15 03:14:35;;;;;;;2.40;2.20;;;;;;;;;;4997235;28;20037;-91
2024/01/15 03:17:00;;;;;;;2.83;2.60;;;;;;;;;;4981537;28;20036;-91
2024/01/15 03:19:26;;;;;;;2.25;1.92;;;;;;;;;;4980975;28;20038;-92
2024/01/15 03:21:52;;;;;;;1.90;1.80;;;;;;;;;;4981007;28;20480;-92
2024/01/15 03:24:17;;;;;;;2.85;2.42;;;;;;;;;;4981451;28;20032;-91
2024/01/15 03:26:42;;;;;;;3.03;2.13;;;;;;;;;;4981519;28;20026;-90
2024/01/15 03:29:08;;;;;;;4.20;2.47;;;;;;;;;;4980123;28;20061;-91
2024/01/15 03:31:34;;;;;;;3.63;2.75;;;;;;;;;;4997198;28;20120;-91
2024/01/15 03:33:59;;;;;;;2.63;2.42;;;;;;;;;;4980771;28;20120;-90
2024/01/15 03:36:25;;;;;;;1.25;1.17;;;;;;;;;;4980965;28;20060;-91
2024/01/15 03:38:50;;;;;;;3.22;2.10;;;;;;;;;;4980600;28;20034;-91
2024/01/15 03:41:15;;;;;;;1.77;1.67;;;;;;;;;;4980655;28;20084;-91
2024/01/15 03:43:41;;;;;;;2.42;2.17;;;;;;;;;;4980721;28;20072;-90
2024/01/15 03:46:08;;;;;;;1.45;1.35;;;;;;;;;;4996645;28;20503;-89
2024/01/15 03:48:34;;;;;;;2.53;2.15;;;;;;;;;;4996847;28;20030;-91
2024/01/15 03:51:02;;;;;;;2.35;2.05;;;;;;;;;;4981303;28;20373;-91
2024/01/15 03:53:29;;;;;;;2.08;1.98;;;;;;;;;;4980228;28;20018;-90
2024/01/15 03:55:55;;;;;;;3.08;2.65;;;;;;;;;;4981051;28;20049;-93
2024/01/15 03:58:20;;;;;;;1.27;1.17;;;;;;;;;;4980736;28;20111;-92
2024/01/15 04:00:46;;;;;;;2.22;1.83;;;;;;;;;;4980590;28;20056;-91
2024/01/15 04:03:11;;;;;;;1.80;1.70;;;;;;;;;;4980888;28;20030;-90
2024/01/15 04:05:37;;;;;;;2.13;1.73;;;;;;;;;;4980824;28;20552;-90
2024/01/15 04:08:03;;;;;;;1.73;1.55;;;;;;;;;;4980586;28;20034;-92
2024/01/15 04:10:28;;;;;;;1.92;1.83;;;;;;;;;;4979981;28;20073;-91
2024/01/15 04:12:54;;;;;;;2.28;2.00;;;;;;;;;;4980359;28;20092;-90
2024/01/15 04:15:19;;;;;;;2.17;1.98;;;;;;;;;;4980848;28;20022;-91
2024/01/15 04:17:45;;;;;;;2.88;1.85;;;;;;;;;;4980254;28;20037;-92
2024/01/15 04:20:10;;;;;;;2.20;2.00;;;;;;;;;;4980635;28;20117;-90
2024/01/15 04:22:37;;;;;;;2.08;1.92;;;;;;;;;;4980555;28;20041;-89
2024/01/15 04:25:03;;;;;;;2.55;2.30;;;;;;;;;;4980777;28;20029;-90
2024/01/15 04:27:29;;;;;;;2.00;1.88;;;;;;;;;;4980025;28;20034;-91
2024/01/15 04:29:54;;;;;;;2.08;1.88;;;;;;;;;;4980274;28;20473;-91
2024/01/15 04:32:19;;;;;;;2.53;2.00;;;;;;;;;;4979859;28;20030;-90
2024/01/15 04:34:52;;;;;;;2.92;1.88;;;;;;;;;;4980587;28;20030;-90
2024/01/15 04:37:18;;;;;;;0.93;0.90;;;;;;;;;;4980000;28;20034;-90
2024/01/15 04:39:43;;;;;;;1.40;1.30;;;;;;;;;;4980828;28;20025;-91
2024/01/15 04:42:08;;;;;;;2.22;2.03;;;;;;;;;;4983262;28;20124;-90
2024/01/15 04:44:34;;;;;;;2.17;1.98;;;;;;;;;;4983835;28;20057;-94
2024/01/15 04:46:59;;;;;;;1.17;0.70;;;;;;;;;;4984117;28;20030;-91
2024/01/15 04:49:27;;;;;;;2.92;2.40;;;;;;;;;;4983554;28;20034;-91
2024/01/15 04:51:56;;;;;;;3.03;2.35;;;;;;;;;;4984281;28;20065;-94
2024/01/15 04:55:02;;;;;;;2.28;2.08;;;;;;;;;;5000856;28;20132;-93
2024/01/15 04:57:39;;;;;;;1.80;1.60;;;;;;;;;;4958768;28;20038;-94
2024/01/15 05:00:15;;;;;;;3.03;2.15;;;;;;;;;;4984800;28;20491;-93
2024/01/15 05:06:28;;;;;;;2.83;2.30;;;;;;;;;;4994479;28;20104;-93
2024/01/15 05:09:06;;;;;;;1.63;1.52;;;;;;;;;;4983604;28;20026;-91
2024/01/15 05:11:56;;;;;;;2.78;2.22;;;;;;;;;;5001421;28;20049;-92
2024/01/15 05:14:55;;;;;;;2.33;1.95;;;;;;;;;;4999818;28;20037;-94
2024/01/15 05:17:30;;;;;;;3.38;2.53;;;;;;;;;;4982466;28;20050;-92
2024/01/15 05:19:59;;;;;;;2.30;2.10;;;;;;;;;;4983773;28;20507;-90
2024/01/15 05:22:25;;;;;;;2.78;2.40;;;;;;;;;;4982999;28;20030;-90
2024/01/15 05:24:50;;;;;;;2.42;2.22;;;;;;;;;;4983479;28;20014;-91
2024/01/15 05:27:23;;;;;;;3.50;2.75;;;;;;;;;;4983003;28;20121;-92
2024/01/15 05:29:52;;;;;;;2.85;2.55;;;;;;;;;;4983587;28;20468;-92
2024/01/15 05:32:31;;;;;;;;;;;;;;;;;;;;;
2024/01/15 05:35:06;;;;;;;2.78;2.38;;;;;;;;;;5032225;28;20034;-90
2024/01/15 05:38:26;;;;;;;2.92;2.42;;;;;;;;;;4983243;28;20037;-93
2024/01/15 05:44:48;;;;;;;2.00;1.60;;;;;;;;;;4918574;29;20067;-92
2024/01/15 05:50:35;;;;;;;2.85;2.55;;;;;;;;;;4908872;29;20033;-93
2024/01/15 05:53:03;;;;;;;3.28;2.88;;;;;;;;;;4901968;29;20066;-93
2024/01/15 05:55:29;;;;;;;3.53;3.10;;;;;;;;;;4902559;29;20055;-90
2024/01/15 05:57:54;;;;;;;3.17;2.72;;;;;;;;;;4896177;29;20035;-92
2024/01/15 06:00:20;;;;;;;4.72;3.03;;;;;;;;;;4955720;29;20066;-92
2024/01/15 06:02:45;;;;;;;3.15;2.75;;;;;;;;;;5013484;28;20038;-92
2024/01/15 06:05:11;;;;;;;2.92;2.60;;;;;;;;;;4981897;28;20389;-89
2024/01/15 06:07:36;;;;;;;2.60;2.25;;;;;;;;;;4982234;28;20034;-90
2024/01/15 06:10:03;;;;;;;3.10;2.53;;;;;;;;;;4982104;28;20755;-91
2024/01/15 06:12:46;;;;;;;3.30;2.35;;;;;;;;;;4982648;28;20025;-91
2024/01/15 06:15:12;;;;;;;3.58;2.65;;;;;;;;;;4982551;28;20656;-90
2024/01/15 06:17:37;;;;;;;2.42;2.15;;;;;;;;;;4981955;28;20495;-90
2024/01/15 06:20:03;;;;;;;3.97;2.60;;;;;;;;;;4982110;28;20026;-91
2024/01/15 06:22:28;;;;;;;1.83;1.73;;;;;;;;;;4981375;28;20034;-91
2024/01/15 06:24:55;;;;;;;4.35;3.22;;;;;;;;;;4982272;28;20384;-91
2024/01/15 06:27:20;;;;;;;2.45;1.73;;;;;;;;;;4982248;28;20033;-91
2024/01/15 06:29:49;;;;;;;2.97;2.67;;;;;;;;;;4981112;28;20034;-91
2024/01/15 06:32:14;;;;;;;4.03;3.08;;;;;;;;;;4980062;28;20095;-90
2024/01/15 06:34:40;;;;;;;3.20;2.90;;;;;;;;;;4979901;28;20465;-92
2024/01/15 06:37:05;;;;;;;2.50;2.30;;;;;;;;;;4980229;28;20237;-92
2024/01/15 06:39:31;;;;;;;4.13;3.13;;;;;;;;;;4981269;28;20397;-92
2024/01/15 06:41:56;;;;;;;4.05;2.97;;;;;;;;;;4981620;28;20453;-91
2024/01/15 06:44:22;;;;;;;3.65;2.88;;;;;;;;;;4980688;28;20532;-92
2024/01/15 06:46:48;;;;;;;3.53;2.33;;;;;;;;;;4981663;28;20026;-92
2024/01/15 06:49:13;;;;;;;3.72;2.45;;;;;;;;;;4981873;28;20030;-92
2024/01/15 06:51:39;;;;;;;5.10;3.13;;;;;;;;;;4981676;28;20392;-92
2024/01/15 06:54:04;;;;;;;3.53;2.05;;;;;;;;;;4981328;28;20026;-90
2024/01/15 06:56:30;;;;;;;5.85;3.33;;;;;;;;;;4981579;28;20026;-91
2024/01/15 06:58:56;;;;;;;2.67;2.15;;;;;;;;;;4981357;28;20042;-91
2024/01/15 07:01:22;;;;;;;4.45;3.53;;;;;;;;;;4981447;28;20456;-91
2024/01/15 07:03:47;;;;;;;4.47;2.50;;;;;;;;;;4981465;28;20053;-90
2024/01/15 07:06:12;;;;;;;4.53;2.88;;;;;;;;;;4981543;28;20358;-90
2024/01/15 07:08:39;;;;;;;3.42;1.80;;;;;;;;;;4981422;28;20565;-91
2024/01/15 07:11:05;;;;;;;2.67;1.73;;;;;;;;;;4997282;28;20516;-91
2024/01/15 07:13:30;;;;;;;3.45;2.88;;;;;;;;;;4981411;28;20022;-91
2024/01/15 07:15:56;;;;;;;3.42;3.10;;;;;;;;;;4981272;28;20034;-92
2024/01/15 07:18:21;;;;;;;4.65;3.15;;;;;;;;;;4981165;28;20032;-92
2024/01/15 07:20:47;;;;;;;9.65;5.47;;;;;;;;;;4981480;28;20394;-92
2024/01/15 07:23:12;;;;;;;9.82;5.82;;;;;;;;;;4981090;28;20026;-91
2024/01/15 07:25:38;;;;;;;5.60;4.45;;;;;;;;;;4981315;28;20476;-91
2024/01/15 07:28:03;;;;;;;6.20;4.22;;;;;;;;;;4980708;28;20057;-92
2024/01/15 07:30:29;;;;;;;6.55;4.10;;;;;;;;;;4981577;28;20180;-92
2024/01/15 07:32:54;;;;;;;4.53;3.38;;;;;;;;;;4980763;28;20025;-91
2024/01/15 07:35:20;;;;;;;6.32;3.88;;;;;;;;;;4980760;28;20033;-90
2024/01/15 07:37:46;;;;;;;7.00;3.78;;;;;;;;;;4980837;28;20551;-92
2024/01/15 07:40:12;;;;;;;6.00;3.55;;;;;;;;;;4980582;28;20184;-92
2024/01/15 07:42:38;;;;;;;3.20;2.92;;;;;;;;;;4981131;28;20025;-90
2024/01/15 07:45:04;;;;;;;1.98;1.70;;;;;;;;;;4981354;28;20116;-92
2024/01/15 07:47:29;;;;;;;4.15;3.78;;;;;;;;;;4981179;28;20481;-91
2024/01/15 07:49:55;;;;;;;4.78;4.15;;;;;;;;;;4980770;28;20029;-91
2024/01/15 07:52:21;;;;;;;4.90;2.65;;;;;;;;;;4980948;28;20026;-91
2024/01/15 07:54:46;;;;;;;3.75;3.40;;;;;;;;;;4980671;28;20121;-91
2024/01/15 07:57:12;;;;;;;4.55;3.40;;;;;;;;;;4980877;28;20026;-91
2024/01/15 07:59:37;;;;;;;4.47;3.17;;;;;;;;;;4980705;28;20041;-91
2024/01/15 08:02:03;;;;;;;4.82;3.20;;;;;;;;;;4981136;28;20020;-91
2024/01/15 08:04:28;;;;;;;2.83;2.30;;;;;;;;;;4980450;28;20484;-91
2024/01/15 08:06:54;;;;;;;5.07;3.90;;;;;;;;;;4980607;28;20108;-94
2024/01/15 08:09:20;;;;;;;5.65;3.83;;;;;;;;;;4980540;28;20034;-91
2024/01/15 08:11:45;;;;;;;4.47;3.95;;;;;;;;;;4980549;28;20065;-90
2024/01/15 08:14:11;;;;;;;5.18;3.70;;;;;;;;;;4981140;28;20538;-92
2024/01/15 08:16:37;;;;;;;5.55;4.28;;;;;;;;;;4984414;28;20026;-92
2024/01/15 08:19:05;;;;;;;3.38;2.85;;;;;;;;;;4984242;28;20045;-92
2024/01/15 08:21:31;;;;;;;4.47;3.40;;;;;;;;;;4984578;28;20021;-91
2024/01/15 08:23:57;;;;;;;4.45;3.22;;;;;;;;;;4984137;28;20030;-92
2024/01/15 08:26:23;;;;;;;6.28;4.10;;;;;;;;;;4984051;28;20088;-91
2024/01/15 08:28:48;;;;;;;3.05;2.13;;;;;;;;;;4984068;28;20038;-91
2024/01/15 08:31:14;;;;;;;5.25;3.95;;;;;;;;;;4984298;28;20022;-91
2024/01/15 08:33:39;;;;;;;4.82;3.92;;;;;;;;;;4984131;28;20028;-90
2024/01/15 08:36:05;;;;;;;4.43;4.03;;;;;;;;;;4983879;28;20113;-92
2024/01/15 08:38:31;;;;;;;2.85;2.15;;;;;;;;;;4983801;28;20129;-91
2024/01/15 08:40:58;;;;;;;4.13;3.25;;;;;;;;;;4984096;28;20511;-91
2024/01/15 08:43:24;;;;;;;4.72;4.25;;;;;;;;;;4983741;28;20117;-91
2024/01/15 08:45:50;;;;;;;4.05;3.47;;;;;;;;;;4984233;28;20076;-91
2024/01/15 08:48:16;;;;;;;6.38;5.00;;;;;;;;;;4984009;28;20128;-90
2024/01/15 08:50:42;;;;;;;7.78;4.95;;;;;;;;;;4984030;28;20061;-91
2024/01/15 08:53:07;;;;;;;5.88;4.53;;;;;;;;;;5000467;28;20357;-92
2024/01/15 08:55:33;;;;;;;4.97;3.97;;;;;;;;;;5000098;28;20495;-90
2024/01/15 08:57:58;;;;;;;6.95;4.15;;;;;;;;;;5000025;28;20041;-91
2024/01/15 09:00:24;;;;;;;5.18;4.65;;;;;;;;;;4983983;28;20026;-90
2024/01/15 09:02:49;;;;;;;6.45;4.57;;;;;;;;;;4983554;28;20465;-92
2024/01/15 09:05:15;;;;;;;6.68;5.20;;;;;;;;;;4983294;28;20041;-91
2024/01/15 09:07:40;;;;;;;6.43;4.75;;;;;;;;;;4983634;28;20030;-92
2024/01/15 09:10:06;;;;;;;4.93;3.20;;;;;;;;;;4999778;28;20049;-91
2024/01/15 09:12:32;;;;;;;6.80;4.07;;;;;;;;;;4983352;28;20068;-91
2024/01/15 09:14:57;;;;;;;7.75;4.85;;;;;;;;;;4983634;28;20396;-92
2024/01/15 09:17:23;;;;;;;8.75;5.05;;;;;;;;;;4983298;28;20025;-91
2024/01/15 09:19:49;;;;;;;4.13;2.78;;;;;;;;;;4983627;28;20088;-90
2024/01/15 09:22:18;;;;;;;6.68;5.60;;;;;;;;;;5015534;28;20025;-91
2024/01/15 09:24:44;;;;;;;2.60;2.38;;;;;;;;;;4999428;28;20030;-91
2024/01/15 09:27:09;;;;;;;5.38;3.88;;;;;;;;;;4983184;28;20026;-91
2024/01/15 09:29:37;;;;;;;5.28;4.07;;;;;;;;;;4983088;28;20041;-91
2024/01/15 09:32:03;;;;;;;5.18;4.38;;;;;;;;;;4999081;28;20041;-90
2024/01/15 09:34:29;;;;;;;5.55;3.97;;;;;;;;;;4982860;28;20014;-91
2024/01/15 09:36:55;;;;;;;5.00;3.53;;;;;;;;;;4982901;28;20350;-90
2024/01/15 09:39:21;;;;;;;6.38;4.68;;;;;;;;;;4982955;28;20473;-92
2024/01/15 09:41:47;;;;;;;7.03;5.22;;;;;;;;;;4983221;28;20075;-93
2024/01/15 09:44:13;;;;;;;8.27;5.75;;;;;;;;;;4983316;28;20022;-92
2024/01/15 09:46:40;;;;;;;7.78;5.00;;;;;;;;;;4982904;28;20068;-92
2024/01/15 09:49:05;;;;;;;7.18;4.65;;;;;;;;;;4982597;28;20029;-91
2024/01/15 09:51:31;;;;;;;8.07;5.50;;;;;;;;;;4982693;28;20056;-91
2024/01/15 09:53:57;;;;;;;9.02;5.43;;;;;;;;;;4982600;28;20060;-91
2024/01/15 09:56:22;;;;;;;3.15;2.13;;;;;;;;;;4982826;28;20036;-92
2024/01/15 09:58:48;;;;;;;8.40;5.80;;;;;;;;;;4998940;28;20037;-91
2024/01/15 10:01:15;;;;;;;5.20;3.03;;;;;;;;;;4982627;28;20037;-90
2024/01/15 10:03:40;;;;;;;2.90;1.75;;;;;;;;;;4982714;28;20113;-92
2024/01/15 10:06:07;;;;;;;5.22;4.50;;;;;;;;;;4982547;28;20120;-91
2024/01/15 10:08:34;;;;;;;4.63;3.35;;;;;;;;;;4982383;28;20022;-90
2024/01/15 10:10:59;;;;;;;10.23;5.07;;;;;;;;;;4982337;28;20128;-91
2024/01/15 10:13:25;;;;;;;5.78;3.78;;;;;;;;;;4982537;28;20080;-91
2024/01/15 10:15:51;;;;;;;6.68;4.72;;;;;;;;;;4982514;28;20030;-93
2024/01/15 10:18:16;;;;;;;11.25;6.78;;;;;;;;;;4982491;28;20522;-91
2024/01/15 10:20:42;;;;;;;12.00;6.50;;;;;;;;;;4982331;28;20122;-90
2024/01/15 10:23:08;;;;;;;7.85;5.35;;;;;;;;;;4982008;28;20018;-90
2024/01/15 10:25:35;;;;;;;3.63;3.25;;;;;;;;;;4981992;28;20036;-91
2024/01/15 10:28:01;;;;;;;7.55;4.95;;;;;;;;;;4982100;28;20026;-91
2024/01/15 10:30:27;;;;;;;4.22;2.92;;;;;;;;;;4982337;28;20018;-92
2024/01/15 10:33:00;;;;;;;6.63;4.20;;;;;;;;;;4982306;28;20036;-92
2024/01/15 10:35:33;;;;;;;8.20;6.13;;;;;;;;;;4981902;28;20037;-91
2024/01/15 10:37:59;;;;;;;5.88;3.22;;;;;;;;;;4981391;28;20030;-91
2024/01/15 10:40:25;;;;;;;7.60;5.90;;;;;;;;;;4998183;28;20472;-91
2024/01/15 10:42:50;;;;;;;7.05;5.20;;;;;;;;;;4981793;28;20116;-91
2024/01/15 10:45:19;;;;;;;2.83;2.60;;;;;;;;;;4981929;28;20495;-93
2024/01/15 10:47:44;;;;;;;7.25;5.20;;;;;;;;;;4981533;28;20032;-91
2024/01/15 10:50:10;;;;;;;6.35;4.68;;;;;;;;;;4981740;28;20021;-91
2024/01/15 10:52:36;;;;;;;8.32;5.43;;;;;;;;;;4998085;28;20018;-91
2024/01/15 10:55:03;;;;;;;3.60;2.30;;;;;;;;;;4981578;28;20033;-92
2024/01/15 10:57:29;;;;;;;3.45;2.90;;;;;;;;;;4981183;28;20033;-92
2024/01/15 10:59:54;;;;;;;4.30;3.00;;;;;;;;;;4981286;28;20064;-91
2024/01/15 11:02:20;;;;;;;8.23;5.18;;;;;;;;;;4981837;28;20473;-92
2024/01/15 11:04:46;;;;;;;3.22;2.50;;;;;;;;;;4980878;28;20129;-91
2024/01/15 11:07:13;;;;;;;8.77;5.82;;;;;;;;;;4981001;28;20084;-92
2024/01/15 11:09:38;;;;;;;5.00;3.83;;;;;;;;;;4981392;28;20030;-91
2024/01/15 11:12:11;;;;;;;9.18;6.18;;;;;;;;;;4981254;28;20053;-92
2024/01/15 11:14:43;;;;;;;11.70;6.88;;;;;;;;;;4981676;28;20481;-91
2024/01/15 11:17:12;;;;;;;10.90;6.72;;;;;;;;;;4981519;28;20018;-92
2024/01/15 11:19:41;;;;;;;8.68;5.15;;;;;;;;;;4997258;28;20038;-91
2024/01/15 11:22:11;;;;;;;3.92;2.50;;;;;;;;;;4981201;28;20025;-90
2024/01/15 11:24:37;;;;;;;;;;;;;;;;;;4981261;28;20030;-90
2024/01/15 11:27:02;;;;;;;8.43;4.20;;;;;;;;;;4997553;28;19960;-92
2024/01/15 11:29:28;;;;;;;5.25;4.50;;;;;;;;;;4980648;28;20389;-92
2024/01/15 11:32:00;;;;;;;7.68;2.38;;;;;;;;;;4981075;28;20062;-92
2024/01/15 11:34:44;;;;;;;10.48;7.20;;;;;;;;;;4997308;28;20152;-91
2024/01/15 11:37:11;;;;;;;5.85;3.75;;;;;;;;;;4981582;28;20045;-92
2024/01/15 11:39:43;;;;;;;4.82;4.00;;;;;;;;;;4981194;28;20124;-91
2024/01/15 11:42:13;;;;;;;5.78;3.97;;;;;;;;;;4981245;28;20057;-93
2024/01/15 11:44:38;;;;;;;6.70;4.78;;;;;;;;;;4980852;28;20026;-91
2024/01/15 11:47:04;;;;;;;9.27;6.00;;;;;;;;;;4980891;28;20018;-91
2024/01/15 11:49:45;;;;;;;9.50;6.65;;;;;;;;;;4981663;28;20034;-91
2024/01/15 11:52:13;;;;;;;5.20;3.53;;;;;;;;;;4985343;28;20033;-92
2024/01/15 11:54:39;;;;;;;6.15;4.32;;;;;;;;;;5001144;28;20026;-93
2024/01/15 11:57:10;;;;;;;9.15;6.35;;;;;;;;;;4984983;28;20022;-91
2024/01/15 11:59:35;;;;;;;6.07;3.10;;;;;;;;;;5000976;28;20026;-92
2024/01/15 12:02:02;;;;;;;9.45;5.88;;;;;;;;;;4984765;28;20049;-91
2024/01/15 12:04:27;;;;;;;8.90;5.57;;;;;;;;;;4985105;28;20022;-92
2024/01/15 12:06:53;;;;;;;7.55;4.30;;;;;;;;;;4984756;28;20097;-91
2024/01/15 12:09:21;;;;;;;15.43;7.22;;;;;;;;;;4984592;28;20041;-91
2024/01/15 12:11:51;;;;;;;10.27;4.72;;;;;;;;;;4984601;28;20053;-91
2024/01/15 12:14:17;;;;;;;9.40;5.72;;;;;;;;;;5016801;28;20026;-91
2024/01/15 12:16:42;;;;;;;12.23;7.13;;;;;;;;;;4984509;28;20040;-92
2024/01/15 12:19:11;;;;;;;10.50;6.65;;;;;;;;;;4984312;28;20041;-91
2024/01/15 12:21:38;;;;;;;8.50;6.00;;;;;;;;;;5000801;28;20543;-92
2024/01/15 12:24:06;;;;;;;5.35;3.58;;;;;;;;;;4984298;28;20029;-92
2024/01/15 12:26:32;;;;;;;5.55;3.70;;;;;;;;;;4984416;28;20484;-91
2024/01/15 12:28:57;;;;;;;8.23;5.38;;;;;;;;;;4984100;28;20093;-93
2024/01/15 12:31:23;;;;;;;4.97;2.90;;;;;;;;;;4984364;28;20026;-91
2024/01/15 12:33:48;;;;;;;12.60;6.68;;;;;;;;;;4984365;28;20068;-91
2024/01/15 12:36:14;;;;;;;8.30;5.28;;;;;;;;;;4984201;28;20499;-91
2024/01/15 12:38:41;;;;;;;6.57;4.53;;;;;;;;;;4984426;28;20030;-91
2024/01/15 12:41:07;;;;;;;8.57;6.38;;;;;;;;;;4984386;28;20037;-91
2024/01/15 12:43:32;;;;;;;3.83;2.35;;;;;;;;;;4984249;28;20034;-91
2024/01/15 12:45:58;;;;;;;4.63;3.42;;;;;;;;;;4983934;28;20033;-92
2024/01/15 12:48:23;;;;;;;11.02;6.53;;;;;;;;;;4983470;28;20068;-91
2024/01/15 12:50:51;;;;;;;5.28;3.60;;;;;;;;;;4984129;28;20465;-91
2024/01/15 12:53:17;;;;;;;6.43;4.85;;;;;;;;;;4983863;28;20022;-92
2024/01/15 12:55:43;;;;;;;7.40;5.35;;;;;;;;;;4983724;28;20080;-90
2024/01/15 12:58:09;;;;;;;9.60;5.85;;;;;;;;;;4983814;28;20459;-91
2024/01/15 13:00:35;;;;;;;5.47;4.90;;;;;;;;;;4983608;28;20064;-92
2024/01/15 13:03:03;;;;;;;5.65;3.75;;;;;;;;;;4983465;28;20053;-92
2024/01/15 13:05:29;;;;;;;10.20;6.90;;;;;;;;;;4983758;28;20034;-90
2024/01/15 13:07:54;;;;;;;4.68;3.60;;;;;;;;;;4983803;28;20469;-91
2024/01/15 13:10:20;;;;;;;12.60;7.05;;;;;;;;;;4983647;28;20050;-92
2024/01/15 13:12:45;;;;;;;7.80;5.38;;;;;;;;;;4983445;28;20026;-89
2024/01/15 13:15:11;;;;;;;7.25;4.65;;;;;;;;;;4985281;28;20034;-91
2024/01/15 13:17:38;;;;;;;12.30;8.05;;;;;;;;;;4995839;28;20022;-91
2024/01/15 13:20:04;;;;;;;9.82;6.90;;;;;;;;;;5002506;28;20404;-92
2024/01/15 13:22:31;;;;;;;7.55;4.32;;;;;;;;;;5002068;28;20025;-91
2024/01/15 13:24:56;;;;;;;7.15;5.05;;;;;;;;;;5002522;28;20080;-89
2024/01/15 13:27:22;;;;;;;10.77;6.93;;;;;;;;;;4991500;28;20029;-89
2024/01/15 13:29:47;;;;;;;4.55;3.00;;;;;;;;;;4982179;28;20030;-91
2024/01/15 13:32:15;;;;;;;5.78;4.90;;;;;;;;;;4981911;28;20441;-90
2024/01/15 13:34:41;;;;;;;9.82;6.95;;;;;;;;;;4982170;28;20473;-89
2024/01/15 13:37:09;;;;;;;7.90;5.72;;;;;;;;;;4982535;28;20032;-89
2024/01/15 13:39:36;;;;;;;8.63;6.53;;;;;;;;;;4979323;28;20046;-89
2024/01/15 13:42:02;;;;;;;9.55;6.70;;;;;;;;;;5014852;28;20101;-90
2024/01/15 13:44:27;;;;;;;11.05;7.30;;;;;;;;;;4978760;28;20118;-89
2024/01/15 13:46:53;;;;;;;9.38;7.18;;;;;;;;;;5012013;28;20109;-90
2024/01/15 13:49:19;;;;;;;14.13;8.85;;;;;;;;;;4963401;28;20521;-90
2024/01/15 13:51:47;;;;;;;11.70;7.78;;;;;;;;;;4995022;28;20030;-89
2024/01/15 13:54:12;;;;;;;7.88;5.25;;;;;;;;;;5014831;28;20072;-89
2024/01/15 13:56:37;;;;;;;3.95;3.05;;;;;;;;;;5015118;28;20049;-92
2024/01/15 13:59:04;;;;;;;2.53;1.98;;;;;;;;;;5014331;28;20180;-90
2024/01/15 14:01:29;;;;;;;11.43;8.30;;;;;;;;;;4981981;28;20014;-90
2024/01/15 14:03:55;;;;;;;14.60;10.15;;;;;;;;;;4981999;28;20052;-91
2024/01/15 14:06:20;;;;;;;4.05;3.47;;;;;;;;;;4981432;28;20097;-90
2024/01/15 14:08:45;;;;;;;5.85;3.70;;;;;;;;;;4980761;28;20038;-91
2024/01/15 14:11:11;;;;;;;3.53;2.13;;;;;;;;;;4982208;28;20046;-91
2024/01/15 14:13:36;;;;;;;8.13;3.20;;;;;;;;;;4981097;28;20040;-90
2024/01/15 14:16:02;;;;;;;16.92;8.68;;;;;;;;;;4981802;28;20034;-91
2024/01/15 14:18:27;;;;;;;17.88;9.15;;;;;;;;;;4981865;28;20062;-90
2024/01/15 14:20:56;;;;;;;14.75;8.35;;;;;;;;;;4980304;28;20104;-91
2024/01/15 14:23:24;;;;;;;12.63;8.23;;;;;;;;;;4981720;28;20021;-91
2024/01/15 14:25:49;;;;;;;12.55;7.85;;;;;;;;;;4981257;28;20030;-91
2024/01/15 14:28:14;;;;;;;11.07;7.20;;;;;;;;;;4982385;28;20057;-92
2024/01/15 14:30:40;;;;;;;15.77;9.70;;;;;;;;;;4981673;28;20034;-91
2024/01/15 14:33:05;;;;;;;11.52;6.45;;;;;;;;;;4981650;28;20499;-91
2024/01/15 14:35:33;;;;;;;10.73;6.68;;;;;;;;;;4981259;28;20018;-93
2024/01/15 14:41:27;;;;;;;10.75;6.20;;;;;;;;;;5012535;28;20032;-91
2024/01/15 14:43:52;;;;;;;9.77;5.90;;;;;;;;;;4979850;28;20121;-93
2024/01/15 14:46:47;;;;;;;8.55;5.50;;;;;;;;;;4979820;28;20025;-92
2024/01/15 14:49:23;;;;;;;10.23;6.70;;;;;;;;;;4977661;28;20025;-91
2024/01/15 14:51:54;;;;;;;9.00;5.40;;;;;;;;;;4981076;28;20034;-90
2024/01/15 14:54:22;;;;;;;7.85;5.40;;;;;;;;;;4981952;28;20053;-93
2024/01/15 14:56:47;;;;;;;9.40;5.88;;;;;;;;;;4978578;28;20026;-92